createdAt,value
2022-09-02T00:02:00.903Z,101464.31
2022-09-02T00:04:31.790Z,101470.25
2022-09-02T00:07:01.543Z,101462.56
2022-09-02T00:09:33.953Z,101464.16
2022-09-02T00:12:04.113Z,101462.31
2022-09-02T00:14:37.054Z,101459.91
2022-09-02T00:17:07.715Z,101465.81
2022-09-02T00:19:38.459Z,101455.38
2022-09-02T00:22:08.259Z,101457.13
2022-09-02T00:24:40.594Z,101453.59
2022-09-02T00:27:10.523Z,101456.97
2022-09-02T00:29:41.052Z,101453.56
2022-09-02T00:32:10.983Z,101456.03
2022-09-02T00:34:40.831Z,101447.41
2022-09-02T00:37:10.664Z,101436.94
2022-09-02T00:39:43.306Z,101437.59
2022-09-02T00:42:13.047Z,101445.44
2022-09-02T00:44:43.115Z,101437.72
2022-09-02T00:47:12.789Z,101389.28
2022-09-02T00:49:46.648Z,101447.31
2022-09-02T00:52:20.541Z,101435.16
2022-09-02T00:54:55.233Z,101408.56
2022-09-02T00:57:27.911Z,101433.53
2022-09-02T01:00:03.961Z,101439.59
2022-09-02T01:02:34.697Z,101435.28
2022-09-02T01:05:05.070Z,101389.50
2022-09-02T01:07:38.702Z,101428.38
2022-09-02T01:10:14.519Z,101430.09
2022-09-02T01:12:45.469Z,101426.59
2022-09-02T01:15:16.419Z,101415.31
2022-09-02T01:17:52.218Z,101421.31
2022-09-02T01:20:25.568Z,101420.69
2022-09-02T01:22:58.600Z,101406.97
2022-09-02T01:25:31.237Z,101417.38
2022-09-02T01:28:05.618Z,101413.91
2022-09-02T01:30:37.366Z,101402.50
2022-09-02T01:33:07.283Z,101411.31
2022-09-02T01:35:37.593Z,101417.19
2022-09-02T01:38:10.131Z,101419.72
2022-09-02T01:40:40.773Z,101404.91
2022-09-02T01:43:13.630Z,101399.63
2022-09-02T01:45:46.141Z,101407.50
2022-09-02T01:48:21.473Z,101403.22
2022-09-02T01:50:55.840Z,101409.19
2022-09-02T01:53:29.624Z,101404.00
2022-09-02T01:56:00.730Z,101397.97
2022-09-02T01:58:34.366Z,101391.94
2022-09-02T02:01:04.287Z,101398.88
2022-09-02T02:03:34.130Z,101396.25
2022-09-02T02:06:03.893Z,101400.69
2022-09-02T02:08:36.181Z,101374.88
2022-09-02T02:11:06.081Z,101374.78
2022-09-02T02:13:37.039Z,101390.25
2022-09-02T02:16:07.112Z,101392.97
2022-09-02T02:18:37.730Z,101378.47
2022-09-02T02:21:07.759Z,101376.72
2022-09-02T02:23:40.050Z,101384.44
2022-09-02T02:26:09.800Z,101385.00
2022-09-02T02:28:40.480Z,101379.63
2022-09-02T02:31:10.741Z,101389.03
2022-09-02T02:33:40.722Z,101373.59
2022-09-02T02:36:11.567Z,101387.53
2022-09-02T02:38:46.244Z,101378.31
2022-09-02T02:41:17.623Z,101365.41
2022-09-02T02:43:48.095Z,101378.22
2022-09-02T02:46:19.293Z,101373.16
2022-09-02T02:48:49.074Z,101376.59
2022-09-02T02:51:18.970Z,101366.19
2022-09-02T02:53:53.793Z,101373.19
2022-09-02T02:56:26.597Z,101375.53
2022-09-02T02:58:56.423Z,101367.75
2022-09-02T03:01:26.632Z,101359.09
2022-09-02T03:03:56.551Z,101366.91
2022-09-02T03:06:27.354Z,101367.81
2022-09-02T03:09:01.019Z,101376.47
2022-09-02T03:11:31.112Z,101347.78
2022-09-02T03:14:00.886Z,101358.16
2022-09-02T03:16:30.821Z,101368.59
2022-09-02T03:19:01.149Z,101363.25
2022-09-02T03:21:38.691Z,101368.53
2022-09-02T03:24:13.246Z,101359.91
2022-09-02T03:26:44.966Z,101365.84
2022-09-02T03:29:15.451Z,101352.81
2022-09-02T03:31:46.367Z,101346.75
2022-09-02T03:34:16.537Z,101358.00
2022-09-02T03:36:47.448Z,101355.34
2022-09-02T03:39:20.506Z,101361.47
2022-09-02T03:41:53.029Z,101354.44
2022-09-02T03:44:23.247Z,101363.81
2022-09-02T03:46:53.282Z,101364.53
2022-09-02T03:49:23.379Z,101353.25
2022-09-02T03:51:53.105Z,101350.53
2022-09-02T03:54:26.000Z,101356.72
2022-09-02T03:56:55.970Z,101350.53
2022-09-02T03:59:26.738Z,101349.53
2022-09-02T04:01:57.574Z,101330.31
2022-09-02T04:04:27.551Z,101349.38
2022-09-02T04:06:57.413Z,101350.91
2022-09-02T04:09:29.829Z,101361.19
2022-09-02T04:11:59.581Z,101332.50
2022-09-02T04:14:29.341Z,101354.19
2022-09-02T04:16:59.428Z,101352.38
2022-09-02T04:19:29.573Z,101349.69
2022-09-02T04:21:59.497Z,101333.31
2022-09-02T04:24:32.110Z,101359.22
2022-09-02T04:27:04.401Z,101342.03
2022-09-02T04:29:36.758Z,101357.56
2022-09-02T04:32:07.027Z,101359.28
2022-09-02T04:34:37.374Z,101342.00
2022-09-02T04:37:07.471Z,101340.38
2022-09-02T04:39:39.911Z,101320.47
2022-09-02T04:42:09.984Z,101352.38
2022-09-02T04:44:39.842Z,101348.03
2022-09-02T04:47:10.441Z,101326.44
2022-09-02T04:49:42.151Z,101343.13
2022-09-02T04:52:13.199Z,101360.50
2022-09-02T04:54:45.671Z,101340.97
2022-09-02T04:57:15.457Z,101353.69
2022-09-02T04:59:45.618Z,101348.44
2022-09-02T05:02:15.655Z,101347.81
2022-09-02T05:04:46.314Z,101355.53
2022-09-02T05:07:22.960Z,101353.16
2022-09-02T05:10:03.234Z,101349.88
2022-09-02T05:12:38.106Z,101341.31
2022-09-02T05:15:09.882Z,101326.63
2022-09-02T05:17:46.340Z,101341.41
2022-09-02T05:20:22.205Z,101348.16
2022-09-02T05:22:52.097Z,101321.94
2022-09-02T05:25:25.627Z,101339.44
2022-09-02T05:27:55.437Z,101326.22
2022-09-02T05:30:25.239Z,101345.34
2022-09-02T05:32:55.355Z,101343.53
2022-09-02T05:35:28.399Z,101343.81
2022-09-02T05:38:01.339Z,101308.47
2022-09-02T05:40:35.040Z,101336.34
2022-09-02T05:43:04.842Z,101322.78
2022-09-02T05:45:34.847Z,101337.56
2022-09-02T05:48:26.730Z,101328.28
2022-09-02T05:50:57.857Z,101320.69
2022-09-02T05:53:30.910Z,101319.00
2022-09-02T05:56:09.288Z,101335.13
2022-09-02T05:58:41.294Z,101325.66
2022-09-02T06:01:12.452Z,101322.63
2022-09-02T06:03:43.343Z,101336.66
2022-09-02T06:06:13.467Z,101335.22
2022-09-02T06:08:46.330Z,101322.63
2022-09-02T06:11:22.827Z,101339.94
2022-09-02T06:13:55.547Z,101335.88
2022-09-02T06:16:30.664Z,101298.03
2022-09-02T06:19:03.838Z,101323.13
2022-09-02T06:21:38.389Z,101317.84
2022-09-02T06:24:09.792Z,101336.84
2022-09-02T06:26:43.645Z,101335.44
2022-09-02T06:29:14.715Z,101333.72
2022-09-02T06:31:45.989Z,101343.34
2022-09-02T06:34:17.809Z,101324.38
2022-09-02T06:36:49.897Z,101340.78
2022-09-02T06:39:26.016Z,101343.38
2022-09-02T06:42:03.071Z,101332.13
2022-09-02T06:44:38.012Z,101331.16
2022-09-02T06:47:09.210Z,101318.28
2022-09-02T06:49:40.274Z,101283.91
2022-09-02T06:52:10.077Z,101340.72
2022-09-02T06:54:40.491Z,101334.75
2022-09-02T06:57:19.482Z,101330.38
2022-09-02T06:59:49.925Z,101332.94
2022-09-02T07:02:22.507Z,101332.97
2022-09-02T07:05:06.464Z,101332.09
2022-09-02T07:07:37.570Z,101326.03
2022-09-02T07:10:13.381Z,101313.03
2022-09-02T07:12:46.703Z,101321.53
2022-09-02T07:15:19.718Z,101337.91
2022-09-02T07:17:50.415Z,101304.19
2022-09-02T07:20:29.759Z,101330.94
2022-09-02T07:23:02.640Z,101330.88
2022-09-02T07:25:34.980Z,101331.78
2022-09-02T07:28:11.642Z,101307.63
2022-09-02T07:30:44.459Z,101324.00
2022-09-02T07:33:18.660Z,101310.28
2022-09-02T07:35:53.248Z,101328.28
2022-09-02T07:38:24.433Z,101326.56
2022-09-02T07:40:56.889Z,101326.63
2022-09-02T07:43:32.405Z,101333.56
2022-09-02T07:46:03.539Z,101312.00
2022-09-02T07:48:40.300Z,101325.00
2022-09-02T07:51:11.791Z,101301.81
2022-09-02T07:53:43.598Z,101314.78
2022-09-02T07:56:15.534Z,101328.59
2022-09-02T07:58:50.505Z,101320.88
2022-09-02T08:01:23.536Z,101307.09
2022-09-02T08:03:55.447Z,101313.16
2022-09-02T08:06:34.553Z,101314.91
2022-09-02T08:09:11.438Z,101291.66
2022-09-02T08:11:42.086Z,101303.75
2022-09-02T08:14:18.784Z,101324.44
2022-09-02T08:16:50.561Z,101319.25
2022-09-02T08:19:20.667Z,101316.66
2022-09-02T08:21:53.083Z,101316.66
2022-09-02T08:24:24.974Z,101295.97
2022-09-02T08:26:56.719Z,101309.72
2022-09-02T08:29:33.118Z,101295.09
2022-09-02T08:32:03.906Z,101303.69
2022-09-02T08:34:33.649Z,101296.78
2022-09-02T08:37:03.431Z,101298.47
2022-09-02T08:39:34.509Z,101294.13
2022-09-02T08:42:11.179Z,101304.41
2022-09-02T08:44:44.649Z,101310.41
2022-09-02T08:47:23.059Z,101309.50
2022-09-02T08:49:56.604Z,101306.84
2022-09-02T08:52:34.264Z,101308.50
2022-09-02T08:55:04.226Z,101290.34
2022-09-02T08:57:35.149Z,101298.78
2022-09-02T09:00:17.473Z,101290.84
2022-09-02T09:02:59.827Z,101292.31
2022-09-02T09:05:41.283Z,101274.09
2022-09-02T09:08:21.548Z,101278.25
2022-09-02T09:11:01.824Z,101235.97
2022-09-02T09:13:56.142Z,101273.53
2022-09-02T09:16:42.286Z,101274.19
2022-09-02T09:19:15.952Z,101281.09
2022-09-02T09:21:47.485Z,101265.53
2022-09-02T09:24:25.402Z,101254.09
2022-09-02T09:26:56.902Z,101251.34
2022-09-02T09:29:27.115Z,101265.13
2022-09-02T09:32:01.675Z,101256.50
2022-09-02T09:34:57.505Z,101262.28
2022-09-02T09:37:36.133Z,101262.28
2022-09-02T09:40:26.049Z,101255.78
2022-09-02T09:42:58.839Z,101247.03
2022-09-02T09:45:35.048Z,101246.72
2022-09-02T09:48:27.698Z,101240.81
2022-09-02T09:51:16.016Z,101246.63
2022-09-02T09:53:48.499Z,101243.06
2022-09-02T09:56:32.666Z,101239.41
2022-09-02T09:59:12.128Z,101244.38
2022-09-02T10:01:42.914Z,101236.47
2022-09-02T10:04:46.827Z,101234.22
2022-09-02T10:07:16.878Z,101240.47
2022-09-02T10:09:48.835Z,101236.03
2022-09-02T10:12:35.440Z,101231.53
2022-09-02T10:15:08.822Z,101225.44
2022-09-02T10:17:53.407Z,101210.59
2022-09-02T10:20:38.938Z,101220.53
2022-09-02T10:23:28.094Z,101221.28
2022-09-02T10:26:08.681Z,101205.38
2022-09-02T10:28:55.325Z,101204.69
2022-09-02T10:31:32.949Z,101197.53
2022-09-02T10:34:15.915Z,101207.66
2022-09-02T10:37:07.826Z,101194.00
2022-09-02T10:39:55.692Z,101205.88
2022-09-02T10:42:38.556Z,101204.94
2022-09-02T10:45:17.886Z,101192.03
2022-09-02T10:47:54.514Z,101191.13
2022-09-02T10:50:36.541Z,101189.78
2022-09-02T10:53:22.099Z,101191.66
2022-09-02T10:55:58.784Z,101190.56
2022-09-02T10:58:42.050Z,101186.06
2022-09-02T11:01:23.713Z,101180.84
2022-09-02T11:04:04.492Z,101166.63
2022-09-02T11:07:01.393Z,101172.28
2022-09-02T11:09:39.702Z,101169.28
2022-09-02T11:12:16.873Z,101160.50
2022-09-02T11:14:59.411Z,101154.31
2022-09-02T11:17:38.746Z,101165.53
2022-09-02T11:20:16.875Z,101155.84
2022-09-02T11:22:56.334Z,101147.38
2022-09-02T11:25:35.444Z,101143.84
2022-09-02T11:28:19.699Z,101148.75
2022-09-02T11:30:54.928Z,101149.38
2022-09-02T11:33:33.667Z,101155.44
2022-09-02T11:36:03.522Z,101146.88
2022-09-02T11:38:39.428Z,101140.91
2022-09-02T11:41:38.202Z,101139.72
2022-09-02T11:44:39.159Z,101141.03
2022-09-02T11:47:47.916Z,101129.78
2022-09-02T11:50:37.274Z,101140.47
2022-09-02T11:53:22.855Z,101131.03
2022-09-02T11:55:57.219Z,101129.34
2022-09-02T11:58:38.985Z,101126.72
2022-09-02T12:01:25.604Z,101131.44
2022-09-02T12:04:48.397Z,101111.50
2022-09-02T12:07:33.937Z,101122.22
2022-09-02T12:10:06.244Z,101120.31
2022-09-02T12:13:08.556Z,101107.28
2022-09-02T12:15:43.897Z,101115.31
2022-09-02T12:18:17.444Z,101101.16
2022-09-02T12:21:23.089Z,101101.59
2022-09-02T12:24:12.429Z,101105.78
2022-09-02T12:27:11.142Z,101112.28
2022-09-02T12:29:42.635Z,101103.69
2022-09-02T12:32:54.711Z,101089.94
2022-09-02T12:35:34.977Z,101097.94
2022-09-02T12:38:27.100Z,101103.19
2022-09-02T12:41:04.179Z,101088.69
2022-09-02T12:43:41.655Z,101085.66
2022-09-02T12:46:24.193Z,101080.63
2022-09-02T12:49:05.540Z,101083.25
2022-09-02T12:51:57.330Z,101067.97
2022-09-02T12:54:38.637Z,101074.94
2022-09-02T12:57:10.863Z,101076.72
2022-09-02T12:59:42.472Z,101073.16
2022-09-02T13:02:29.573Z,101059.28
2022-09-02T13:05:16.099Z,101068.84
2022-09-02T13:08:13.570Z,101067.19
2022-09-02T13:10:58.410Z,101062.72
2022-09-02T13:14:09.921Z,101054.25
2022-09-02T13:16:42.869Z,101057.75
2022-09-02T13:19:47.179Z,101056.69
2022-09-02T13:22:47.602Z,101044.56
2022-09-02T13:25:38.880Z,101039.84
2022-09-02T13:28:35.335Z,101026.09
2022-09-02T13:31:16.794Z,101039.72
2022-09-02T13:33:46.673Z,101033.50
2022-09-02T13:36:30.742Z,101033.22
2022-09-02T13:39:16.291Z,101035.31
2022-09-02T13:41:47.122Z,101027.56
2022-09-02T13:44:24.743Z,101031.00
2022-09-02T13:46:56.887Z,100994.00
2022-09-02T13:49:30.149Z,101035.56
2022-09-02T13:52:16.862Z,101033.47
2022-09-02T13:54:52.331Z,101018.34
2022-09-02T13:57:28.538Z,101027.34
2022-09-02T13:59:59.527Z,101000.63
2022-09-02T14:02:33.794Z,101016.28
2022-09-02T14:05:08.660Z,101028.16
2022-09-02T14:07:42.543Z,101024.88
2022-09-02T14:10:21.277Z,101018.59
2022-09-02T14:12:55.406Z,101005.19
2022-09-02T14:15:30.524Z,100989.09
2022-09-02T14:18:18.070Z,101007.97
2022-09-02T14:21:00.337Z,101006.56
2022-09-02T14:23:33.482Z,101016.06
2022-09-02T14:26:07.177Z,101018.09
2022-09-02T14:28:38.877Z,100988.44
2022-09-02T14:31:15.663Z,101015.25
2022-09-02T14:33:48.737Z,101011.72
2022-09-02T14:36:35.929Z,101007.34
2022-09-02T14:39:18.243Z,101001.44
2022-09-02T14:41:53.044Z,101006.22
2022-09-02T14:44:28.839Z,101006.75
2022-09-02T14:47:02.975Z,100998.06
2022-09-02T14:49:39.439Z,100996.22
2022-09-02T14:52:20.847Z,100995.00
2022-09-02T14:54:53.942Z,101000.81
2022-09-02T14:57:33.150Z,100999.44
2022-09-02T15:00:05.466Z,100996.78
2022-09-02T15:02:38.524Z,100990.81
2022-09-02T15:05:11.270Z,100988.09
2022-09-02T15:07:41.318Z,100981.06
2022-09-02T15:10:12.221Z,100996.66
2022-09-02T15:12:52.538Z,100976.31
2022-09-02T15:15:22.299Z,101001.47
2022-09-02T15:17:52.039Z,100987.41
2022-09-02T15:20:24.689Z,100980.63
2022-09-02T15:22:54.363Z,100980.75
2022-09-02T15:25:24.270Z,100944.25
2022-09-02T15:27:56.556Z,100962.47
2022-09-02T15:30:27.333Z,100973.53
2022-09-02T15:32:57.064Z,100960.34
2022-09-02T15:35:26.802Z,100960.53
2022-09-02T15:37:56.542Z,100957.81
2022-09-02T15:40:26.387Z,100963.69
2022-09-02T15:43:00.381Z,100941.75
2022-09-02T15:45:35.303Z,100950.97
2022-09-02T15:48:07.189Z,100954.88
2022-09-02T15:50:36.949Z,100949.84
2022-09-02T15:53:06.670Z,100960.19
2022-09-02T15:55:37.368Z,100950.03
2022-09-02T15:58:11.618Z,100920.66
2022-09-02T16:00:41.758Z,100949.41
2022-09-02T16:03:13.699Z,100926.22
2022-09-02T16:05:43.455Z,100947.44
2022-09-02T16:08:13.494Z,100903.06
2022-09-02T16:10:45.226Z,100923.88
2022-09-02T16:13:21.218Z,100920.97
2022-09-02T16:15:53.478Z,100937.41
2022-09-02T16:18:29.271Z,100934.19
2022-09-02T16:21:02.883Z,100939.97
2022-09-02T16:23:34.005Z,100937.91
2022-09-02T16:26:13.051Z,100936.06
2022-09-02T16:28:47.041Z,100926.78
2022-09-02T16:31:20.151Z,100935.34
2022-09-02T16:33:55.357Z,100926.56
2022-09-02T16:36:26.874Z,100932.72
2022-09-02T16:39:03.575Z,100927.06
2022-09-02T16:41:35.307Z,100923.03
2022-09-02T16:44:09.454Z,100924.50
2022-09-02T16:46:40.662Z,100928.81
2022-09-02T16:49:10.963Z,100919.50
2022-09-02T16:51:41.130Z,100894.81
2022-09-02T16:54:21.052Z,100902.19
2022-09-02T16:56:51.466Z,100910.88
2022-09-02T16:59:23.757Z,100907.41
2022-09-02T17:01:54.570Z,100903.69
2022-09-02T17:04:24.330Z,100914.19
2022-09-02T17:06:54.195Z,100860.28
2022-09-02T17:09:24.932Z,100912.47
2022-09-02T17:11:54.743Z,100900.03
2022-09-02T17:14:27.151Z,100913.94
2022-09-02T17:16:56.985Z,100899.53
2022-09-02T17:19:32.501Z,100900.19
2022-09-02T17:22:03.419Z,100913.94
2022-09-02T17:24:33.294Z,100896.53
2022-09-02T17:27:03.214Z,100915.50
2022-09-02T17:29:50.928Z,100917.88
2022-09-02T17:32:22.365Z,100899.34
2022-09-02T17:34:54.069Z,100916.16
2022-09-02T17:37:26.745Z,100915.66
2022-09-02T17:39:56.488Z,100916.38
2022-09-02T17:42:23.801Z,100919.94
2022-09-02T17:44:56.102Z,100922.50
2022-09-02T17:47:26.463Z,100921.88
2022-09-02T17:49:56.210Z,100913.16
2022-09-02T17:52:27.442Z,100916.00
2022-09-02T17:54:59.519Z,100920.16
2022-09-02T17:57:43.028Z,100923.75
2022-09-02T18:00:18.254Z,100914.50
2022-09-02T18:03:09.545Z,100916.28
2022-09-02T18:05:59.322Z,100910.28
2022-09-02T18:08:37.875Z,100918.47
2022-09-02T18:11:08.235Z,100919.13
2022-09-02T18:13:49.286Z,100905.00
2022-09-02T18:16:49.441Z,100919.72
2022-09-02T18:19:39.086Z,100917.97
2022-09-02T18:22:17.527Z,100921.69
2022-09-02T18:25:01.582Z,100928.47
2022-09-02T18:27:47.977Z,100929.28
2022-09-02T18:30:24.139Z,100930.22
2022-09-02T18:33:33.043Z,100944.31
2022-09-02T18:36:17.378Z,100902.44
2022-09-02T18:38:52.653Z,100917.84
2022-09-02T18:41:39.004Z,100935.69
2022-09-02T18:44:21.568Z,100940.13
2022-09-02T18:46:58.131Z,100931.59
2022-09-02T18:49:33.774Z,100939.41
2022-09-02T18:52:09.718Z,100944.66
2022-09-02T18:54:48.115Z,100896.66
2022-09-02T18:57:18.256Z,100956.00
2022-09-02T18:59:55.143Z,100950.16
2022-09-02T19:02:35.700Z,100957.78
2022-09-02T19:05:12.775Z,100958.78
2022-09-02T19:07:59.658Z,100938.44
2022-09-02T19:10:29.446Z,100943.78
2022-09-02T19:13:01.965Z,100970.38
2022-09-02T19:15:32.452Z,100969.00
2022-09-02T19:18:02.147Z,100926.28
2022-09-02T19:20:36.753Z,100963.78
2022-09-02T19:23:09.421Z,100975.22
2022-09-02T19:25:39.257Z,100958.25
2022-09-02T19:28:13.188Z,100972.72
2022-09-02T19:30:42.975Z,100978.03
2022-09-02T19:33:16.469Z,100969.50
2022-09-02T19:35:52.455Z,100969.69
2022-09-02T19:38:22.692Z,100976.66
2022-09-02T19:40:52.614Z,100978.44
2022-09-02T19:43:23.052Z,100980.25
2022-09-02T19:45:53.871Z,100978.66
2022-09-02T19:48:23.695Z,100976.28
2022-09-02T19:50:56.638Z,100949.72
2022-09-02T19:53:30.376Z,100989.25
2022-09-02T19:56:01.406Z,100968.00
2022-09-02T19:58:31.192Z,100982.59
2022-09-02T20:01:01.227Z,100983.38
2022-09-02T20:03:31.090Z,100988.69
2022-09-02T20:06:06.013Z,100993.81
2022-09-02T20:08:35.890Z,100999.09
2022-09-02T20:11:08.358Z,100983.78
2022-09-02T20:13:41.642Z,100979.66
2022-09-02T20:16:20.419Z,100993.47
2022-09-02T20:18:51.236Z,100997.03
2022-09-02T20:21:26.621Z,100995.13
2022-09-02T20:24:01.107Z,100982.25
2022-09-02T20:26:42.411Z,101009.91
2022-09-02T20:29:23.870Z,100992.69
2022-09-02T20:32:05.048Z,101003.84
2022-09-02T20:34:42.960Z,101005.66
2022-09-02T20:37:29.295Z,100997.97
2022-09-02T20:40:17.759Z,101005.66
2022-09-02T20:43:10.050Z,101000.53
2022-09-02T20:45:43.098Z,100998.81
2022-09-02T20:48:27.666Z,101004.72
2022-09-02T20:51:05.411Z,101012.56
2022-09-02T20:54:01.483Z,101013.50
2022-09-02T20:56:40.366Z,101000.63
2022-09-02T20:59:23.143Z,101009.25
2022-09-02T21:02:01.808Z,101006.88
2022-09-02T21:04:37.752Z,100996.56
2022-09-02T21:07:13.618Z,101003.41
2022-09-02T21:09:52.779Z,101003.53
2022-09-02T21:12:33.541Z,101004.53
2022-09-02T21:15:12.218Z,101000.09
2022-09-02T21:17:48.935Z,100989.84
2022-09-02T21:20:25.914Z,100999.38
2022-09-02T21:23:00.454Z,101001.09
2022-09-02T21:25:40.365Z,101007.25
2022-09-02T21:28:15.839Z,101004.78
2022-09-02T21:30:50.956Z,101008.13
2022-09-02T21:33:20.897Z,101000.47
2022-09-02T21:35:53.051Z,100999.59
2022-09-02T21:38:30.137Z,101001.44
2022-09-02T21:41:18.975Z,100997.22
2022-09-02T21:43:58.793Z,101004.69
2022-09-02T21:46:36.178Z,100984.25
2022-09-02T21:49:14.717Z,101003.16
2022-09-02T21:51:50.239Z,101007.47
2022-09-02T21:54:37.267Z,100997.19
2022-09-02T21:57:27.101Z,100996.53
2022-09-02T22:00:02.873Z,101003.44
2022-09-02T22:02:57.946Z,100972.53
2022-09-02T22:05:47.618Z,100993.84
2022-09-02T22:08:24.222Z,100999.31
2022-09-02T22:11:06.017Z,100995.09
2022-09-02T22:13:42.012Z,100986.44
2022-09-02T22:16:22.754Z,100951.25
2022-09-02T22:19:00.406Z,100988.16
2022-09-02T22:21:38.198Z,100972.75
2022-09-02T22:24:08.473Z,100973.69
2022-09-02T22:26:43.724Z,100987.50
2022-09-02T22:29:22.024Z,100988.47
2022-09-02T22:31:55.181Z,100992.06
2022-09-02T22:34:26.366Z,100976.59
2022-09-02T22:37:03.122Z,100985.03
2022-09-02T22:39:39.791Z,100985.88
2022-09-02T22:42:21.351Z,100979.84
2022-09-02T22:45:11.056Z,100985.88
2022-09-02T22:48:00.852Z,100982.47
2022-09-02T22:50:56.310Z,100979.91
2022-09-02T22:53:26.070Z,100976.44
2022-09-02T22:56:02.974Z,100983.22
2022-09-02T22:58:55.832Z,100977.19
2022-09-02T23:01:36.125Z,100980.75
2022-09-02T23:04:21.297Z,100973.03
2022-09-02T23:06:51.003Z,100978.28
2022-09-02T23:09:22.530Z,100978.34
2022-09-02T23:12:02.468Z,100978.34
2022-09-02T23:14:41.255Z,100974.13
2022-09-02T23:17:23.837Z,100979.38
2022-09-02T23:20:08.174Z,100976.78
2022-09-02T23:22:52.897Z,100964.81
2022-09-02T23:25:53.247Z,100971.66
2022-09-02T23:28:33.943Z,100963.94
2022-09-02T23:31:10.910Z,100962.19
2022-09-02T23:33:56.847Z,100967.38
2022-09-02T23:36:36.199Z,100964.78
2022-09-02T23:39:18.778Z,100965.66
2022-09-02T23:41:48.965Z,100964.78
2022-09-02T23:44:18.833Z,100962.16
2022-09-02T23:47:01.553Z,100955.25
2022-09-02T23:49:43.421Z,100960.44
2022-09-02T23:52:28.000Z,100939.81
2022-09-02T23:55:11.865Z,100951.00
2022-09-02T23:58:09.928Z,100923.53
